Time;durP1;ratioP1;P1;durP2;ratioP2;P2;SDS_P1;SDS_P2;PMS_P1;PMS_P2;Temp;Humidity;BMP_temperature;BMP_pressure;BME280_temperature;BME280_humidity;BME280_pressure;Samples;Min_cycle;Max_cycle;Signal;HPM_P1;HPM_P2
2022/06/25 00:01:14;;;;;;;1.63;1.52;;;;;;;23.13;48.15;100820.38;5052888;28;20021;-65
2022/06/25 00:03:39;;;;;;;1.60;1.50;;;;;;;23.12;48.17;100835.13;5053237;28;20040;-65
2022/06/25 00:06:05;;;;;;;1.77;1.67;;;;;;;23.11;48.07;100823.41;5053862;28;20028;-65
2022/06/25 00:08:31;;;;;;;1.75;1.65;;;;;;;23.10;48.25;100824.47;5051560;28;20468;-65
2022/06/25 00:10:56;;;;;;;1.80;1.70;;;;;;;23.11;48.29;100830.72;5053158;28;20083;-65
2022/06/25 00:13:22;;;;;;;1.58;1.48;;;;;;;23.11;47.96;100823.41;5053209;28;20426;-65
2022/06/25 00:15:47;;;;;;;1.40;1.30;;;;;;;23.10;48.16;100840.81;5053015;28;20323;-65
2022/06/25 00:18:14;;;;;;;1.60;1.50;;;;;;;23.09;48.13;100828.25;5053762;28;20471;-65
2022/06/25 00:20:39;;;;;;;1.35;1.25;;;;;;;23.11;48.01;100838.91;5053037;28;20028;-65
2022/06/25 00:23:05;;;;;;;1.50;1.40;;;;;;;23.10;48.06;100832.66;5061806;28;20025;-65
2022/06/25 00:25:30;;;;;;;1.50;1.40;;;;;;;23.09;48.03;100833.72;5072611;28;20029;-65
2022/06/25 00:27:56;;;;;;;1.70;1.60;;;;;;;23.08;47.93;100833.97;5072599;28;20032;-65
2022/06/25 00:30:22;;;;;;;3.95;1.60;;;;;;;23.09;48.00;100838.34;5073222;28;20033;-66
2022/06/25 00:32:47;;;;;;;1.60;1.50;;;;;;;23.10;47.74;100845.47;5072944;28;20455;-65
2022/06/25 00:35:12;;;;;;;1.80;1.70;;;;;;;23.09;47.82;100846.53;5072922;28;20070;-66
2022/06/25 00:37:38;;;;;;;1.20;1.15;;;;;;;23.09;47.87;100849.25;5072928;28;20037;-65
2022/06/25 00:40:04;;;;;;;1.80;1.70;;;;;;;23.09;47.80;100849.25;5072841;28;20025;-65
2022/06/25 00:42:29;;;;;;;1.80;1.70;;;;;;;23.08;47.80;100859.34;5072831;28;20025;-65
2022/06/25 00:44:57;;;;;;;1.60;1.50;;;;;;;23.06;47.54;100854.16;5072802;28;20044;-65
2022/06/25 00:47:23;;;;;;;1.67;1.58;;;;;;;23.07;47.70;100852.25;5072767;28;20041;-65
2022/06/25 00:49:49;;;;;;;1.33;1.23;;;;;;;23.08;47.37;100858.50;5072817;28;20413;-65
2022/06/25 00:52:18;;;;;;;1.58;1.48;;;;;;;23.08;47.47;100863.94;5073691;28;20024;-65
2022/06/25 00:54:51;;;;;;;1.73;1.63;;;;;;;23.06;47.37;100873.22;5076154;28;20517;-65
2022/06/25 00:57:25;;;;;;;1.50;1.40;;;;;;;23.03;47.29;100868.25;5076194;28;20025;-65
2022/06/25 00:59:52;;;;;;;1.50;1.40;;;;;;;23.07;47.18;100874.03;5076125;28;20425;-66
2022/06/25 01:02:18;;;;;;;1.52;1.42;;;;;;;23.08;47.18;100877.59;5076085;28;20035;-66
2022/06/25 01:04:43;;;;;;;1.77;1.67;;;;;;;23.06;47.16;100878.69;5076542;28;20025;-66
2022/06/25 01:07:09;;;;;;;1.83;1.73;;;;;;;23.05;46.99;100887.94;5076207;28;20028;-65
2022/06/25 01:09:35;;;;;;;1.70;1.60;;;;;;;23.07;46.91;100893.13;5075883;28;20028;-65
2022/06/25 01:12:00;;;;;;;1.67;1.58;;;;;;;23.06;46.74;100894.22;5076115;28;20023;-65
2022/06/25 01:14:26;;;;;;;1.70;1.60;;;;;;;23.05;46.82;100893.38;5075843;28;20119;-65
2022/06/25 01:16:51;;;;;;;1.63;1.52;;;;;;;23.06;46.71;100895.03;5076064;28;20024;-65
2022/06/25 01:19:17;;;;;;;1.50;1.40;;;;;;;23.06;46.88;100900.50;5076122;28;20048;-65
2022/06/25 01:21:42;;;;;;;1.67;1.58;;;;;;;23.05;46.80;100906.16;5076061;28;20024;-65
2022/06/25 01:24:08;;;;;;;1.63;1.52;;;;;;;23.05;46.56;100907.00;5058921;28;20049;-65
2022/06/25 01:26:39;;;;;;;1.60;1.50;;;;;;;23.04;46.56;100905.34;5055897;28;20021;-65
2022/06/25 01:29:05;;;;;;;1.60;1.50;;;;;;;23.05;46.57;100919.81;5055661;28;20035;-66
2022/06/25 01:31:30;;;;;;;1.70;1.60;;;;;;;23.04;46.52;100910.81;5055843;28;20100;-65
2022/06/25 01:33:56;;;;;;;1.70;1.60;;;;;;;23.03;46.50;100905.63;5055515;28;20486;-65
2022/06/25 01:36:22;;;;;;;1.60;1.50;;;;;;;23.04;46.48;100918.97;5055441;28;20041;-65
2022/06/25 01:38:47;;;;;;;1.20;1.20;;;;;;;23.04;46.46;100912.69;5054469;28;20100;-65
2022/06/25 01:41:12;;;;;;;1.63;1.40;;;;;;;23.02;46.24;100910.22;5055336;28;20028;-65
2022/06/25 01:43:39;;;;;;;1.60;1.50;;;;;;;23.03;46.48;100911.88;5055293;28;20021;-65
2022/06/25 01:46:06;;;;;;;1.42;1.33;;;;;;;23.02;46.18;100920.31;5055557;28;20029;-66
2022/06/25 01:48:31;;;;;;;1.60;1.50;;;;;;;23.00;46.51;100920.56;5055761;28;20028;-66
2022/06/25 01:50:57;;;;;;;1.52;1.42;;;;;;;23.03;46.36;100924.69;5055716;28;20029;-65
2022/06/25 01:53:22;;;;;;;1.80;1.70;;;;;;;23.04;46.26;100923.59;5055078;28;20037;-65
2022/06/25 01:55:48;;;;;;;1.60;1.50;;;;;;;23.02;46.42;100921.13;5055405;28;20021;-65
2022/06/25 01:58:13;;;;;;;1.67;1.58;;;;;;;23.02;46.42;100923.84;5055323;28;20135;-65
2022/06/25 02:00:39;;;;;;;1.70;1.60;;;;;;;22.99;46.05;100908.03;5055033;28;20352;-65
2022/06/25 02:03:04;;;;;;;1.60;1.50;;;;;;;22.98;46.30;100909.09;5054981;28;20075;-65
2022/06/25 02:08:15;;;;;;;2.42;1.60;;;;;;;23.02;46.27;100915.66;5055137;28;20433;-65
2022/06/25 02:10:41;;;;;;;1.80;1.70;;;;;;;23.01;46.47;100919.50;5053910;28;20051;-65
2022/06/25 02:13:06;;;;;;;1.60;1.50;;;;;;;23.00;46.10;100931.47;5055077;28;20455;-65
2022/06/25 02:15:32;;;;;;;1.52;1.42;;;;;;;23.01;46.23;100930.41;5054952;28;20104;-65
2022/06/25 02:17:58;;;;;;;1.55;1.45;;;;;;;23.00;46.24;100927.94;5055021;28;20086;-66
2022/06/25 02:20:24;;;;;;;1.63;1.52;;;;;;;23.00;46.16;100931.47;5054881;28;20473;-65
2022/06/25 02:22:49;;;;;;;1.70;1.60;;;;;;;23.00;46.25;100939.63;5059213;28;20523;-65
2022/06/25 02:25:15;;;;;;;1.70;1.60;;;;;;;23.00;46.02;100939.63;5074538;28;20044;-65
2022/06/25 02:27:40;;;;;;;1.73;1.63;;;;;;;22.99;46.18;100943.47;5074414;28;20039;-65
2022/06/25 02:30:06;;;;;;;1.60;1.50;;;;;;;23.01;45.90;100941.31;5074510;28;20352;-65
2022/06/25 02:32:33;;;;;;;1.60;1.50;;;;;;;23.00;46.25;100949.72;5074344;28;20024;-65
2022/06/25 02:34:58;;;;;;;1.90;1.80;;;;;;;22.99;46.09;100948.91;5074660;28;20033;-65
2022/06/25 02:37:24;;;;;;;1.85;1.75;;;;;;;22.99;46.06;100948.91;5075034;28;20029;-66
2022/06/25 02:39:49;;;;;;;1.95;1.85;;;;;;;23.01;46.07;100948.66;5074498;28;20025;-65
2022/06/25 02:42:14;;;;;;;1.88;1.77;;;;;;;23.00;46.22;100949.72;5074441;28;20020;-65
2022/06/25 02:44:40;;;;;;;1.70;1.60;;;;;;;22.99;45.95;100948.91;5074459;28;20371;-66
2022/06/25 02:47:05;;;;;;;1.58;1.48;;;;;;;22.97;46.11;100939.34;5074092;28;20017;-65
2022/06/25 02:49:31;;;;;;;1.90;1.80;;;;;;;23.00;46.02;100949.72;5074307;28;20020;-65
2022/06/25 02:51:56;;;;;;;2.03;1.90;;;;;;;22.99;46.25;100943.47;5074287;28;20032;-65
2022/06/25 02:54:22;;;;;;;1.90;1.80;;;;;;;23.00;46.13;100947.81;5074075;28;20513;-65
2022/06/25 02:59:31;;;;;;;1.73;1.63;;;;;;;22.99;46.19;100943.47;5074351;28;20124;-65
2022/06/25 03:01:57;;;;;;;1.70;1.60;;;;;;;22.99;46.26;100948.06;5073853;28;20101;-66
2022/06/25 03:04:24;;;;;;;1.70;1.60;;;;;;;22.99;46.47;100950.78;5074159;28;20107;-65
2022/06/25 03:06:50;;;;;;;1.60;1.50;;;;;;;22.98;46.41;100952.72;5074140;28;20036;-65
2022/06/25 03:09:16;;;;;;;1.92;1.83;;;;;;;22.98;46.53;100949.97;5074558;28;20049;-65
2022/06/25 03:11:42;;;;;;;1.77;1.67;;;;;;;22.98;46.33;100941.81;5073940;28;20459;-65
2022/06/25 03:14:07;;;;;;;1.83;1.73;;;;;;;22.98;46.55;100946.44;5073554;28;20033;-65
2022/06/25 03:16:33;;;;;;;1.80;1.70;;;;;;;22.98;46.45;100947.25;5073738;28;20037;-65
2022/06/25 03:18:58;;;;;;;1.73;1.63;;;;;;;22.99;46.75;100942.63;5074298;28;20028;-65
2022/06/25 03:21:24;;;;;;;1.80;1.70;;;;;;;22.99;46.80;100948.91;5073433;28;20033;-65
2022/06/25 03:23:49;;;;;;;1.85;1.75;;;;;;;23.00;46.73;100941.56;5061516;28;20052;-64
2022/06/25 03:26:15;;;;;;;1.75;1.65;;;;;;;23.00;46.76;100944.28;5053721;28;20025;-64
2022/06/25 03:28:40;;;;;;;1.88;1.63;;;;;;;23.00;46.72;100950.53;5053250;28;20028;-64
2022/06/25 03:31:05;;;;;;;1.67;1.58;;;;;;;23.01;46.93;100945.94;5053288;28;20044;-64
2022/06/25 03:33:31;;;;;;;2.10;2.00;;;;;;;23.00;46.86;100958.72;5053651;28;20475;-64
2022/06/25 03:35:56;;;;;;;1.80;1.70;;;;;;;22.99;46.97;100954.38;5053258;28;20048;-64
2022/06/25 03:38:22;;;;;;;1.50;1.40;;;;;;;23.00;46.93;100958.72;5053298;28;20033;-64
2022/06/25 03:40:48;;;;;;;1.60;1.50;;;;;;;23.01;46.86;100954.13;5053571;28;20017;-64
2022/06/25 03:43:13;;;;;;;1.58;1.48;;;;;;;23.01;46.98;100963.09;5053514;28;20036;-64
2022/06/25 03:45:38;;;;;;;1.55;1.45;;;;;;;23.00;47.16;100961.44;5053222;28;20029;-64
2022/06/25 03:48:05;;;;;;;1.85;1.75;;;;;;;23.01;46.93;100962.28;5053333;28;20025;-64
2022/06/25 03:50:30;;;;;;;1.80;1.70;;;;;;;22.99;47.04;100959.81;5052470;28;20029;-64
2022/06/25 03:52:56;;;;;;;1.70;1.60;;;;;;;22.99;47.10;100959.81;5053308;28;20439;-64
2022/06/25 03:55:21;;;;;;;1.80;1.70;;;;;;;23.01;46.93;100959.56;5053382;28;20036;-65
2022/06/25 03:57:46;;;;;;;1.55;1.45;;;;;;;23.01;47.14;100963.09;5053292;28;20090;-65
2022/06/25 04:00:14;;;;;;;1.75;1.65;;;;;;;23.00;47.20;100966.09;5053230;28;20055;-65
2022/06/25 04:02:40;;;;;;;1.85;1.75;;;;;;;22.98;47.12;100966.34;5053268;28;20112;-65
2022/06/25 04:05:06;;;;;;;1.70;1.60;;;;;;;23.00;47.04;100977.00;5053182;28;20116;-70
2022/06/25 04:07:34;;;;;;;1.80;1.70;;;;;;;22.98;47.00;100963.63;5052791;28;20056;-71
2022/06/25 04:10:00;;;;;;;1.80;1.70;;;;;;;22.99;47.37;100964.44;5052840;28;20025;-71
2022/06/25 04:12:25;;;;;;;1.63;1.52;;;;;;;23.00;47.13;100960.63;5053611;28;20090;-71
2022/06/25 04:14:51;;;;;;;1.60;1.50;;;;;;;23.00;47.24;100966.91;5053119;28;20051;-71
2022/06/25 04:17:16;;;;;;;1.80;1.70;;;;;;;23.00;47.15;100966.91;5053436;28;20466;-71
2022/06/25 04:19:41;;;;;;;1.70;1.60;;;;;;;23.01;47.22;100967.75;5052680;28;20383;-70
2022/06/25 04:22:08;;;;;;;1.50;1.40;;;;;;;23.01;47.04;100967.75;5052764;28;20029;-70
2022/06/25 04:24:35;;;;;;;1.67;1.58;;;;;;;23.00;47.03;100972.34;5069224;28;20079;-70
2022/06/25 04:27:00;;;;;;;1.50;1.40;;;;;;;23.01;47.10;100973.19;5072804;28;20471;-70
2022/06/25 04:29:26;;;;;;;1.50;1.40;;;;;;;23.02;47.10;100974.81;5076885;28;20047;-70
2022/06/25 04:31:51;;;;;;;1.50;1.40;;;;;;;23.01;46.91;100979.47;5077599;28;20031;-70
2022/06/25 04:34:17;;;;;;;1.50;1.40;;;;;;;23.01;46.60;100975.91;5076887;28;20463;-71
2022/06/25 04:36:42;;;;;;;1.58;1.48;;;;;;;22.99;46.57;100981.63;5077363;28;20032;-71
2022/06/25 04:39:07;;;;;;;1.30;1.20;;;;;;;23.02;46.73;100983.81;5076727;28;20459;-71
2022/06/25 04:41:33;;;;;;;1.40;1.30;;;;;;;23.03;46.49;100984.66;5077102;28;20029;-70
2022/06/25 04:44:01;;;;;;;1.35;1.25;;;;;;;23.02;46.32;100986.53;5077053;28;20467;-70
2022/06/25 04:46:27;;;;;;;1.42;1.33;;;;;;;23.01;46.42;100987.63;5077078;28;20037;-72
2022/06/25 04:48:52;;;;;;;1.63;1.52;;;;;;;23.01;46.16;100995.00;5076574;28;20035;-70
2022/06/25 04:51:18;;;;;;;1.40;1.30;;;;;;;23.01;46.08;100995.81;5076494;28;20374;-70
2022/06/25 04:53:56;;;;;;;1.10;1.10;;;;;;;23.00;45.76;100994.16;5076210;28;20498;-70
2022/06/25 04:56:28;;;;;;;1.48;1.38;;;;;;;23.01;45.76;100995.81;5076205;28;20118;-70
2022/06/25 04:58:54;;;;;;;1.40;1.30;;;;;;;23.00;45.55;101002.34;5076453;28;20032;-68
2022/06/25 05:01:20;;;;;;;1.40;1.30;;;;;;;23.00;45.51;100999.59;5076048;28;20020;-68
2022/06/25 05:03:45;;;;;;;1.15;1.15;;;;;;;22.99;45.34;101000.72;5076065;28;20115;-68
2022/06/25 05:06:11;;;;;;;0.90;0.90;;;;;;;22.99;45.18;100999.84;5076401;28;20025;-68
2022/06/25 05:08:37;;;;;;;1.40;1.30;;;;;;;22.98;44.93;101000.97;5076001;28;20490;-67
2022/06/25 05:11:02;;;;;;;1.02;1.02;;;;;;;22.94;44.92;100997.91;5076255;28;20028;-67
2022/06/25 05:13:28;;;;;;;0.90;0.90;;;;;;;22.98;44.84;100996.31;5074739;28;20405;-67
2022/06/25 05:15:53;;;;;;;0.85;0.85;;;;;;;22.98;44.76;101004.50;5075828;28;20032;-68
2022/06/25 05:18:19;;;;;;;0.90;0.90;;;;;;;22.99;44.57;101013.50;5075758;28;20024;-68
2022/06/25 05:20:44;;;;;;;1.00;1.00;;;;;;;22.99;44.32;101005.31;5075755;28;20078;-68
2022/06/25 05:23:10;;;;;;;0.70;0.70;;;;;;;22.99;44.26;101006.16;5072010;28;20027;-67
2022/06/25 05:25:36;;;;;;;0.90;0.90;;;;;;;22.96;44.06;101003.94;5055709;28;20073;-67
2022/06/25 05:28:02;;;;;;;0.80;0.80;;;;;;;22.96;43.88;101003.94;5055928;28;20427;-67
2022/06/25 05:30:27;;;;;;;0.90;0.90;;;;;;;22.99;43.98;101008.03;5055946;28;20037;-67
2022/06/25 05:32:53;;;;;;;0.85;0.85;;;;;;;22.98;43.72;101004.50;5055914;28;20039;-67
2022/06/25 05:35:18;;;;;;;0.70;0.70;;;;;;;22.97;43.63;101004.75;5055828;28;20470;-67
2022/06/25 05:37:44;;;;;;;0.80;0.80;;;;;;;22.96;43.60;101003.94;5055855;28;20029;-67
2022/06/25 05:40:10;;;;;;;0.80;0.80;;;;;;;22.99;43.66;101005.31;5054494;28;20025;-67
2022/06/25 05:42:36;;;;;;;0.93;0.93;;;;;;;22.98;43.72;101007.22;5055417;28;20025;-67
2022/06/25 05:45:02;;;;;;;0.80;0.80;;;;;;;23.01;43.46;101008.63;5055702;28;20033;-67
2022/06/25 05:47:27;;;;;;;0.90;0.90;;;;;;;23.01;43.47;101012.16;5055542;28;20032;-67
2022/06/25 05:49:53;;;;;;;0.90;0.90;;;;;;;23.02;43.23;101012.97;5055549;28;20021;-67
2022/06/25 05:52:18;;;;;;;0.75;0.75;;;;;;;23.03;43.47;101011.91;5055142;28;20052;-64
2022/06/25 05:54:44;;;;;;;0.80;0.80;;;;;;;23.03;43.27;101010.00;5055157;28;20028;-64
2022/06/25 05:57:09;;;;;;;1.00;1.00;;;;;;;22.99;43.38;101018.94;5055073;28;20074;-64
2022/06/25 05:59:35;;;;;;;0.90;0.90;;;;;;;23.01;43.11;101016.81;5055058;28;20033;-64
2022/06/25 06:02:00;;;;;;;0.80;0.80;;;;;;;23.02;43.27;101015.72;5054995;28;20052;-64
2022/06/25 06:04:26;;;;;;;0.70;0.70;;;;;;;23.01;43.00;101023.06;5054929;28;20017;-64
2022/06/25 06:06:52;;;;;;;0.63;0.63;;;;;;;23.01;43.25;101020.34;5055173;28;20029;-64
2022/06/25 06:09:17;;;;;;;0.85;0.85;;;;;;;23.02;43.21;101019.25;5055046;28;20446;-64
2022/06/25 06:11:43;;;;;;;0.60;0.60;;;;;;;23.01;43.06;101014.91;5054814;28;20032;-65
2022/06/25 06:14:08;;;;;;;0.77;0.77;;;;;;;23.04;43.34;101025.28;5055135;28;20079;-65
2022/06/25 06:16:34;;;;;;;0.63;0.63;;;;;;;23.05;43.25;101017.94;5055033;28;20020;-65
2022/06/25 06:18:59;;;;;;;0.90;0.90;;;;;;;23.06;43.27;101023.16;5054978;28;20391;-65
2022/06/25 06:21:25;;;;;;;1.00;0.90;;;;;;;23.06;43.15;101031.34;5054644;28;20028;-65
2022/06/25 06:23:50;;;;;;;0.77;0.77;;;;;;;23.06;43.41;101031.34;5063086;28;20041;-65
2022/06/25 06:26:15;;;;;;;0.90;0.90;;;;;;;23.06;43.29;101034.06;5074837;28;20035;-65
2022/06/25 06:28:43;;;;;;;0.98;0.80;;;;;;;23.09;43.32;101034.63;5074440;28;20410;-65
2022/06/25 06:31:08;;;;;;;0.70;0.70;;;;;;;23.08;43.30;101032.97;5075182;28;20033;-66
2022/06/25 06:33:34;;;;;;;0.60;0.60;;;;;;;23.10;43.29;101036.28;5074404;28;20040;-65
2022/06/25 06:35:59;;;;;;;0.90;0.90;;;;;;;23.08;43.19;101027.50;5074317;28;20091;-65
2022/06/25 06:38:24;;;;;;;0.80;0.80;;;;;;;23.10;43.18;101025.38;5074300;28;20035;-65
2022/06/25 06:40:50;;;;;;;0.82;0.82;;;;;;;23.09;43.18;101024.53;5074213;28;20021;-65
2022/06/25 06:43:15;;;;;;;0.80;0.80;;;;;;;23.08;43.52;101028.38;5074589;28;20027;-66
2022/06/25 06:45:41;;;;;;;0.80;0.80;;;;;;;23.12;43.28;101034.13;5074618;28;20033;-66
2022/06/25 06:48:06;;;;;;;0.88;0.88;;;;;;;23.11;43.54;101030.59;5073991;28;20027;-66
2022/06/25 06:50:32;;;;;;;0.80;0.80;;;;;;;23.11;43.43;101027.00;5073987;28;20028;-65
2022/06/25 06:52:57;;;;;;;1.00;1.00;;;;;;;23.12;43.62;101025.94;5074042;28;20028;-65
2022/06/25 06:55:22;;;;;;;0.73;0.73;;;;;;;23.12;43.62;101029.47;5073960;28;20082;-65
2022/06/25 06:57:48;;;;;;;0.70;0.70;;;;;;;23.12;43.51;101028.66;5073945;28;20039;-65
2022/06/25 07:00:13;;;;;;;0.68;0.68;;;;;;;23.13;43.69;101033.03;5074193;28;20029;-65
2022/06/25 07:02:39;;;;;;;0.90;0.90;;;;;;;23.16;43.62;101029.78;5073062;28;20477;-65
2022/06/25 07:05:05;;;;;;;0.80;0.80;;;;;;;23.16;43.71;101035.25;5074044;28;20040;-65
2022/06/25 07:07:30;;;;;;;0.90;0.90;;;;;;;23.15;43.83;101030.91;5073695;28;20044;-65
2022/06/25 07:09:56;;;;;;;0.80;0.80;;;;;;;23.16;43.66;101029.78;5073924;28;20024;-65
2022/06/25 07:12:21;;;;;;;0.70;0.70;;;;;;;23.18;43.81;101028.47;5074131;28;20439;-65
2022/06/25 07:14:47;;;;;;;0.70;0.70;;;;;;;23.17;43.69;101034.19;5073849;28;20028;-67
2022/06/25 07:17:12;;;;;;;0.80;0.80;;;;;;;23.18;43.90;101028.47;5073926;28;20035;-66
2022/06/25 07:19:37;;;;;;;0.80;0.80;;;;;;;23.18;44.09;101027.63;5073533;28;20032;-65
2022/06/25 07:22:03;;;;;;;0.80;0.80;;;;;;;23.17;43.93;101032.28;5073422;28;20028;-65
2022/06/25 07:24:28;;;;;;;0.90;0.90;;;;;;;23.21;43.73;101035.31;5060948;28;20140;-65
2022/06/25 07:26:54;;;;;;;0.88;0.88;;;;;;;23.20;43.78;101031.75;5053630;28;20021;-65
2022/06/25 07:29:19;;;;;;;0.95;0.93;;;;;;;23.22;43.90;101023.31;5053560;28;20049;-65
2022/06/25 07:31:46;;;;;;;0.95;0.95;;;;;;;23.22;43.77;101024.16;5053362;28;20060;-65
2022/06/25 07:34:12;;;;;;;0.95;0.95;;;;;;;23.23;43.90;101030.41;5053679;28;20021;-65
2022/06/25 07:36:37;;;;;;;0.80;0.80;;;;;;;23.25;43.50;101033.72;5053272;28;20482;-65
2022/06/25 07:39:03;;;;;;;0.95;0.95;;;;;;;23.25;43.78;101028.28;5053567;28;20029;-65
2022/06/25 07:41:28;;;;;;;1.50;0.93;;;;;;;23.25;43.75;101033.72;5053184;28;20096;-65
2022/06/25 07:43:53;;;;;;;0.88;0.88;;;;;;;23.25;43.79;101028.28;5053376;28;20070;-65
2022/06/25 07:46:19;;;;;;;0.80;0.80;;;;;;;23.27;43.84;101037.03;5053148;28;20021;-65
2022/06/25 07:48:45;;;;;;;1.10;1.10;;;;;;;23.25;43.90;101031.81;5053308;28;20048;-65
2022/06/25 07:53:54;;;;;;;1.17;1.08;;;;;;;23.27;43.76;101031.56;5053697;28;20179;-65
2022/06/25 07:56:20;;;;;;;0.80;0.80;;;;;;;23.26;43.98;101040.81;5053014;28;20475;-65
2022/06/25 07:58:45;;;;;;;1.00;0.90;;;;;;;23.26;43.95;101029.91;5053262;28;20060;-66
2022/06/25 08:01:11;;;;;;;1.00;1.00;;;;;;;23.27;43.87;101036.16;5053248;28;20479;-65
2022/06/25 08:03:36;;;;;;;1.20;1.10;;;;;;;23.28;43.96;101037.84;5052486;28;20420;-65
2022/06/25 08:06:02;;;;;;;1.17;1.05;;;;;;;23.25;43.98;101036.47;5052982;28;20436;-66
2022/06/25 08:08:27;;;;;;;1.00;1.00;;;;;;;23.25;44.23;101037.28;5053257;28;20021;-65
2022/06/25 08:10:53;;;;;;;1.02;1.00;;;;;;;23.25;44.03;101037.28;5053205;28;20032;-65
2022/06/25 08:13:18;;;;;;;0.98;0.98;;;;;;;23.26;44.14;101040.81;5052961;28;20529;-65
2022/06/25 08:15:44;;;;;;;1.05;1.05;;;;;;;23.28;44.15;101043.28;5052362;28;20017;-65
2022/06/25 08:18:09;;;;;;;0.90;0.90;;;;;;;23.28;44.14;101044.09;5053331;28;20471;-65
2022/06/25 08:20:35;;;;;;;0.93;0.93;;;;;;;23.30;44.21;101041.97;5053328;28;20025;-65
2022/06/25 08:23:00;;;;;;;1.17;1.10;;;;;;;23.24;43.94;101038.34;5053414;28;20021;-65
2022/06/25 08:25:26;;;;;;;1.20;1.10;;;;;;;23.25;44.29;101044.63;5073015;28;20368;-65
2022/06/25 08:27:53;;;;;;;1.35;0.90;;;;;;;23.24;44.36;101045.69;5073584;28;20075;-65
2022/06/25 08:30:19;;;;;;;1.20;1.10;;;;;;;23.24;44.14;101049.25;5073721;28;20187;-65
2022/06/25 08:32:45;;;;;;;0.73;0.73;;;;;;;23.23;44.20;101041.31;5073842;28;20073;-65
2022/06/25 08:35:11;;;;;;;0.90;0.90;;;;;;;23.25;44.11;101042.72;5073650;28;20029;-64
2022/06/25 08:37:43;;;;;;;0.90;0.90;;;;;;;23.24;44.36;101038.34;5073560;28;20025;-64
2022/06/25 08:40:08;;;;;;;0.90;0.90;;;;;;;23.23;44.39;101036.72;5073647;28;20532;-64
2022/06/25 08:42:34;;;;;;;1.15;1.13;;;;;;;23.24;44.48;101037.53;5073842;28;20024;-64
2022/06/25 08:45:03;;;;;;;1.10;1.00;;;;;;;23.23;44.39;101042.16;5074029;28;20046;-64
2022/06/25 08:47:31;;;;;;;0.90;0.90;;;;;;;23.24;44.21;101038.34;5073717;28;20025;-65
2022/06/25 08:49:58;;;;;;;1.35;1.20;;;;;;;23.24;44.45;101035.63;5073475;28;20055;-65
2022/06/25 08:52:23;;;;;;;1.00;1.00;;;;;;;23.24;44.47;101045.69;5073169;28;20471;-67
2022/06/25 08:54:49;;;;;;;0.90;0.90;;;;;;;23.24;44.60;101035.63;5054586;28;20025;-65
2022/06/25 08:57:15;;;;;;;1.05;1.00;;;;;;;23.22;44.54;101035.06;5054738;28;20028;-65
2022/06/25 08:59:40;;;;;;;1.08;1.08;;;;;;;23.23;44.52;101033.97;5072748;28;20093;-65
2022/06/25 09:02:06;;;;;;;0.90;0.90;;;;;;;23.24;44.55;101032.06;5072435;28;20429;-65
2022/06/25 09:04:34;;;;;;;1.35;1.10;;;;;;;23.17;44.64;101039.63;5072793;28;20055;-65
2022/06/25 09:07:15;;;;;;;1.30;1.20;;;;;;;23.18;44.83;101033.94;5072643;28;20021;-65
2022/06/25 09:09:49;;;;;;;1.00;1.00;;;;;;;23.18;44.92;101033.09;5072305;28;20024;-66
2022/06/25 09:12:15;;;;;;;1.17;1.08;;;;;;;23.17;44.96;101032.28;5072577;28;20134;-65
2022/06/25 09:14:40;;;;;;;1.10;1.10;;;;;;;23.13;44.77;101030.31;5075195;28;20029;-65
2022/06/25 09:17:09;;;;;;;1.17;1.10;;;;;;;23.12;44.97;101034.94;5075888;28;20095;-65
2022/06/25 09:19:36;;;;;;;1.00;0.90;;;;;;;23.12;44.92;101034.94;5076034;28;20024;-65
2022/06/25 09:22:11;;;;;;;1.20;1.10;;;;;;;23.12;45.05;101034.13;5075750;28;20370;-65
2022/06/25 09:24:40;;;;;;;1.17;1.08;;;;;;;23.11;45.09;101027.00;5064008;28;20057;-65
2022/06/25 09:27:05;;;;;;;1.08;1.08;;;;;;;23.11;44.82;101027.00;5055944;28;20025;-64
2022/06/25 09:29:43;;;;;;;1.27;1.17;;;;;;;23.10;45.17;101023.47;5055582;28;20367;-65
2022/06/25 09:32:08;;;;;;;0.95;0.95;;;;;;;23.14;44.91;101027.31;5056417;28;20083;-65
2022/06/25 09:34:34;;;;;;;1.00;1.00;;;;;;;23.13;44.76;101013.94;5055601;28;20025;-65
2022/06/25 09:37:25;;;;;;;1.20;1.10;;;;;;;23.14;45.11;101027.31;5055773;28;20033;-65
2022/06/25 09:39:52;;;;;;;0.90;0.90;;;;;;;23.15;44.67;101020.00;5055798;28;20033;-65
2022/06/25 09:42:32;;;;;;;1.38;1.10;;;;;;;23.16;44.89;101019.75;5054470;28;20021;-65
2022/06/25 09:45:17;;;;;;;0.98;0.98;;;;;;;23.16;45.01;101030.63;5055650;28;20024;-65
2022/06/25 09:47:43;;;;;;;1.02;1.00;;;;;;;23.20;44.64;101025.50;5054839;28;20041;-65
2022/06/25 09:50:16;;;;;;;0.88;0.88;;;;;;;23.15;44.88;101017.25;5055585;28;20028;-65
2022/06/25 09:52:55;;;;;;;1.00;1.00;;;;;;;23.16;44.80;101019.75;5055458;28;20078;-65
2022/06/25 09:55:28;;;;;;;1.00;1.00;;;;;;;23.17;44.99;101024.09;5055167;28;20025;-65
2022/06/25 09:57:54;;;;;;;1.02;1.02;;;;;;;23.19;44.57;101012.94;5055388;28;20053;-65
2022/06/25 10:00:20;;;;;;;0.90;0.90;;;;;;;23.19;44.63;101012.94;5055099;28;20047;-65
2022/06/25 10:02:47;;;;;;;0.90;0.90;;;;;;;23.22;44.67;101012.41;5055297;28;20060;-65
2022/06/25 10:05:13;;;;;;;1.02;1.00;;;;;;;23.24;44.67;101013.78;5055244;28;20025;-65
2022/06/25 10:10:22;;;;;;;1.30;1.17;;;;;;;23.23;44.28;101009.44;5055256;28;20067;-65
2022/06/25 10:12:49;;;;;;;1.05;1.00;;;;;;;23.24;44.34;101010.25;5055030;28;20025;-65
2022/06/25 10:15:17;;;;;;;1.10;1.00;;;;;;;23.22;44.56;101007.78;5055433;28;20017;-65
2022/06/25 10:17:47;;;;;;;0.80;0.80;;;;;;;23.23;44.45;101008.59;5053792;28;20383;-66
2022/06/25 10:20:13;;;;;;;1.00;1.00;;;;;;;23.27;44.54;101012.47;5053466;28;20029;-65
2022/06/25 10:22:38;;;;;;;0.90;0.90;;;;;;;23.28;44.29;101011.38;5054603;28;20335;-65
2022/06/25 10:25:12;;;;;;;1.25;0.98;;;;;;;23.20;44.75;101009.13;5066348;28;20043;-65
2022/06/25 10:27:45;;;;;;;0.80;0.80;;;;;;;23.25;44.30;101007.28;5073410;28;20530;-65
2022/06/25 10:30:12;;;;;;;1.40;1.13;;;;;;;23.24;44.29;101004.81;5074788;28;20036;-65
2022/06/25 10:32:47;;;;;;;1.00;1.00;;;;;;;23.25;44.37;101009.19;5073474;28;20035;-66
2022/06/25 10:35:28;;;;;;;1.23;1.13;;;;;;;23.25;44.10;101003.72;5074433;28;20071;-65
2022/06/25 10:37:59;;;;;;;1.02;0.93;;;;;;;23.23;44.32;101008.59;5074686;28;20104;-66
2022/06/25 10:40:24;;;;;;;0.82;0.80;;;;;;;23.25;44.44;101003.72;5074867;28;20046;-66
2022/06/25 10:43:01;;;;;;;1.02;0.93;;;;;;;23.27;44.17;101006.19;5074245;28;20546;-66
2022/06/25 10:45:30;;;;;;;1.10;1.00;;;;;;;23.28;44.22;101000.47;5074199;28;20073;-65
2022/06/25 10:47:59;;;;;;;1.00;1.00;;;;;;;23.25;44.04;100996.38;5074319;28;20056;-65
2022/06/25 10:50:27;;;;;;;0.95;0.90;;;;;;;23.31;43.87;100999.16;5074445;28;20021;-65
2022/06/25 10:53:10;;;;;;;0.95;0.95;;;;;;;23.32;43.96;100989.88;5074519;28;20025;-66
2022/06/25 10:55:48;;;;;;;1.23;1.00;;;;;;;23.29;43.86;100988.50;5074481;28;20025;-65
2022/06/25 10:58:13;;;;;;;1.20;1.10;;;;;;;23.27;43.33;100993.38;5074078;28;20037;-66
2022/06/25 11:00:46;;;;;;;0.93;0.93;;;;;;;23.32;43.63;100985.25;5074368;28;20178;-64
2022/06/25 11:03:11;;;;;;;0.88;0.88;;;;;;;23.27;43.57;100981.63;5074371;28;20036;-66
2022/06/25 11:05:41;;;;;;;1.00;1.00;;;;;;;23.37;43.50;100985.31;5074013;28;20020;-65
2022/06/25 11:08:07;;;;;;;0.90;0.90;;;;;;;23.38;43.39;100980.66;5073851;28;20029;-65
2022/06/25 11:10:36;;;;;;;0.98;0.90;;;;;;;23.33;43.37;100981.44;5074408;28;20378;-64
2022/06/25 11:13:03;;;;;;;1.00;1.00;;;;;;;23.34;43.45;100980.34;5073871;28;20021;-64
2022/06/25 11:15:43;;;;;;;0.90;0.90;;;;;;;23.31;43.48;100980.06;5073992;28;20024;-66
2022/06/25 11:18:09;;;;;;;1.00;1.00;;;;;;;23.33;43.35;100973.25;5073849;28;20029;-65
2022/06/25 11:20:35;;;;;;;0.93;0.85;;;;;;;23.30;43.51;100971.06;5073885;28;20059;-65
2022/06/25 11:23:02;;;;;;;1.08;0.98;;;;;;;23.31;43.32;100988.25;5073735;28;20078;-65
2022/06/25 11:28:48;;;;;;;1.50;1.08;;;;;;;23.23;43.61;100981.34;5052830;28;20114;-64
2022/06/25 11:31:20;;;;;;;0.90;0.90;;;;;;;23.26;43.30;100980.81;5054014;28;20040;-64
2022/06/25 11:33:46;;;;;;;1.10;1.00;;;;;;;23.21;43.49;100988.94;5053417;28;20108;-66
2022/06/25 11:36:11;;;;;;;1.10;0.70;;;;;;;23.21;43.31;100980.78;5052344;28;20040;-65